sensor_id;sensor_type;location;lat;lon;timestamp;pressure;altitude;pressure_sealevel;temperature;humidity
8451;BME280;4262;50.980;13.892;2023-03-19T06:02:43;50290.75;;;-142.97;24.74
8451;BME280;4262;50.980;13.892;2023-03-19T06:05:33;50259.56;;;-142.97;24.81
8451;BME280;4262;50.980;13.892;2023-03-19T06:08:23;50236.16;;;-142.97;24.58
8451;BME280;4262;50.980;13.892;2023-03-19T06:10:57;50238.09;;;-142.97;24.69
8451;BME280;4262;50.980;13.892;2023-03-19T06:13:24;50243.94;;;-142.97;24.30
8451;BME280;4262;50.980;13.892;2023-03-19T06:15:59;50240.06;;;-142.97;24.50
8451;BME280;4262;50.980;13.892;2023-03-19T06:18:46;50234.19;;;-142.97;24.44
8451;BME280;4262;50.980;13.892;2023-03-19T06:21:14;50234.19;;;-142.97;24.55
8451;BME280;4262;50.980;13.892;2023-03-19T06:23:41;50261.50;;;-142.97;24.35
8451;BME280;4262;50.980;13.892;2023-03-19T06:26:10;50255.66;;;-142.97;24.35
8451;BME280;4262;50.980;13.892;2023-03-19T06:28:49;50261.50;;;-142.97;24.67
8451;BME280;4262;50.980;13.892;2023-03-19T06:31:16;50242.00;;;-142.97;24.75
8451;BME280;4262;50.980;13.892;2023-03-19T06:33:53;50226.41;;;-142.97;24.38
8451;BME280;4262;50.980;13.892;2023-03-19T06:36:22;50218.59;;;-142.97;24.12
8451;BME280;4262;50.980;13.892;2023-03-19T06:38:50;50216.66;;;-142.97;24.10
8451;BME280;4262;50.980;13.892;2023-03-19T06:41:16;50277.09;;;-142.97;24.38
8451;BME280;4262;50.980;13.892;2023-03-19T06:43:45;50240.06;;;-142.97;24.55
8451;BME280;4262;50.980;13.892;2023-03-19T06:46:11;50197.16;;;-142.97;24.08
8451;BME280;4262;50.980;13.892;2023-03-19T06:48:38;50226.41;;;-142.97;24.58
8451;BME280;4262;50.980;13.892;2023-03-19T06:51:07;50224.47;;;-142.97;24.44
8451;BME280;4262;50.980;13.892;2023-03-19T06:53:33;50245.91;;;-142.97;24.31
8451;BME280;4262;50.980;13.892;2023-03-19T06:56:00;50251.75;;;-142.97;24.59
8451;BME280;4262;50.980;13.892;2023-03-19T06:58:29;50257.59;;;-142.97;24.43
8451;BME280;4262;50.980;13.892;2023-03-19T07:00:58;50240.06;;;-142.97;24.33
8451;BME280;4262;50.980;13.892;2023-03-19T07:03:25;50208.84;;;-142.97;24.43
8451;BME280;4262;50.980;13.892;2023-03-19T07:05:52;50210.81;;;-142.97;24.14
8451;BME280;4262;50.980;13.892;2023-03-19T07:08:20;50193.25;;;-142.97;23.90
8451;BME280;4262;50.980;13.892;2023-03-19T07:10:47;50242.00;;;-142.97;24.17
8451;BME280;4262;50.980;13.892;2023-03-19T07:13:13;50203.00;;;-142.97;23.61
8451;BME280;4262;50.980;13.892;2023-03-19T07:15:40;50201.06;;;-142.97;23.10
8451;BME280;4262;50.980;13.892;2023-03-19T07:18:07;50212.75;;;-142.97;23.15
8451;BME280;4262;50.980;13.892;2023-03-19T07:20:34;50245.91;;;-142.97;23.47
8451;BME280;4262;50.980;13.892;2023-03-19T07:23:00;50232.25;;;-142.97;23.73
8451;BME280;4262;50.980;13.892;2023-03-19T07:25:29;50208.84;;;-142.97;23.58
8451;BME280;4262;50.980;13.892;2023-03-19T07:27:56;50242.00;;;-142.97;24.22
8451;BME280;4262;50.980;13.892;2023-03-19T07:30:23;50228.34;;;-142.97;23.83
8451;BME280;4262;50.980;13.892;2023-03-19T07:32:51;50224.47;;;-142.97;23.54
8451;BME280;4262;50.980;13.892;2023-03-19T07:35:18;50218.59;;;-142.97;23.37
8451;BME280;4262;50.980;13.892;2023-03-19T07:37:45;50204.97;;;-142.97;23.41
8451;BME280;4262;50.980;13.892;2023-03-19T07:40:12;50210.81;;;-142.97;23.51
8451;BME280;4262;50.980;13.892;2023-03-19T07:42:41;50226.41;;;-142.97;23.20
8451;BME280;4262;50.980;13.892;2023-03-19T07:45:08;50206.91;;;-142.97;23.66
8451;BME280;4262;50.980;13.892;2023-03-19T07:47:34;50195.22;;;-142.97;23.58
8451;BME280;4262;50.980;13.892;2023-03-19T07:50:01;50234.19;;;-142.97;23.50
8451;BME280;4262;50.980;13.892;2023-03-19T07:52:30;50210.81;;;-142.97;23.69
8451;BME280;4262;50.980;13.892;2023-03-19T07:54:56;50169.88;;;-142.97;23.56
8451;BME280;4262;50.980;13.892;2023-03-19T07:57:23;50216.66;;;-142.97;23.17
8451;BME280;4262;50.980;13.892;2023-03-19T07:59:52;50236.16;;;-142.97;23.56
8451;BME280;4262;50.980;13.892;2023-03-19T08:02:20;50208.84;;;-142.97;23.50
8451;BME280;4262;50.980;13.892;2023-03-19T08:04:47;50201.06;;;-142.97;23.24
8451;BME280;4262;50.980;13.892;2023-03-19T08:07:13;50234.19;;;-142.97;23.27
8451;BME280;4262;50.980;13.892;2023-03-19T08:09:41;50203.00;;;-142.97;23.32
8451;BME280;4262;50.980;13.892;2023-03-19T08:12:09;50179.63;;;-142.97;23.28
8451;BME280;4262;50.980;13.892;2023-03-19T08:14:36;50167.91;;;-142.97;23.24
8451;BME280;4262;50.980;13.892;2023-03-19T08:17:04;50210.81;;;-142.97;23.10
8451;BME280;4262;50.980;13.892;2023-03-19T08:19:32;50222.50;;;-142.97;23.02
8451;BME280;4262;50.980;13.892;2023-03-19T08:21:59;50197.16;;;-142.97;23.12
8451;BME280;4262;50.980;13.892;2023-03-19T08:24:26;50191.31;;;-142.97;23.06
8451;BME280;4262;50.980;13.892;2023-03-19T08:26:54;50203.00;;;-142.97;23.23
8451;BME280;4262;50.980;13.892;2023-03-19T08:29:20;50220.56;;;-142.97;22.62
8451;BME280;4262;50.980;13.892;2023-03-19T08:31:47;50201.06;;;-142.97;23.69
8451;BME280;4262;50.980;13.892;2023-03-19T08:34:15;50199.13;;;-142.97;23.07
8451;BME280;4262;50.980;13.892;2023-03-19T08:36:42;50154.28;;;-142.97;23.34
8451;BME280;4262;50.980;13.892;2023-03-19T08:39:08;50183.50;;;-142.97;23.21
8451;BME280;4262;50.980;13.892;2023-03-19T08:41:35;50175.72;;;-142.97;23.05
8451;BME280;4262;50.980;13.892;2023-03-19T08:44:02;50158.16;;;-142.97;23.16
8451;BME280;4262;50.980;13.892;2023-03-19T08:46:30;50156.22;;;-142.97;23.01
8451;BME280;4262;50.980;13.892;2023-03-19T08:48:58;50138.69;;;-142.97;22.54
8451;BME280;4262;50.980;13.892;2023-03-19T08:51:26;50154.28;;;-142.97;22.23
8451;BME280;4262;50.980;13.892;2023-03-19T08:53:56;50148.41;;;-142.97;22.53
8451;BME280;4262;50.980;13.892;2023-03-19T08:56:24;50165.97;;;-142.97;21.77
8451;BME280;4262;50.980;13.892;2023-03-19T08:58:50;50179.63;;;-142.97;21.95
8451;BME280;4262;50.980;13.892;2023-03-19T09:01:17;50136.72;;;-142.97;22.01
8451;BME280;4262;50.980;13.892;2023-03-19T09:03:45;50158.16;;;-142.97;21.79
8451;BME280;4262;50.980;13.892;2023-03-19T09:06:12;50128.94;;;-142.97;22.21
8451;BME280;4262;50.980;13.892;2023-03-19T09:08:41;50150.38;;;-142.97;21.87
8451;BME280;4262;50.980;13.892;2023-03-19T09:11:08;50181.56;;;-142.97;21.91
8451;BME280;4262;50.980;13.892;2023-03-19T09:13:35;50158.16;;;-142.97;22.11
8451;BME280;4262;50.980;13.892;2023-03-19T09:16:03;50204.97;;;-142.97;21.89
8451;BME280;4262;50.980;13.892;2023-03-19T09:18:31;50185.47;;;-142.97;22.35
8451;BME280;4262;50.980;13.892;2023-03-19T09:20:57;50210.81;;;-142.97;22.35
8451;BME280;4262;50.980;13.892;2023-03-19T09:23:25;50191.31;;;-142.97;22.62
8451;BME280;4262;50.980;13.892;2023-03-19T09:25:53;50165.97;;;-142.97;22.62
8451;BME280;4262;50.980;13.892;2023-03-19T09:28:19;50203.00;;;-142.97;22.35
8451;BME280;4262;50.980;13.892;2023-03-19T09:30:46;50199.13;;;-142.97;22.23
8451;BME280;4262;50.980;13.892;2023-03-19T09:33:14;50160.13;;;-142.97;22.31
8451;BME280;4262;50.980;13.892;2023-03-19T09:35:41;50167.91;;;-142.97;22.19
8451;BME280;4262;50.980;13.892;2023-03-19T09:38:08;50165.97;;;-142.97;21.82
8451;BME280;4262;50.980;13.892;2023-03-19T09:40:37;50165.97;;;-142.97;21.93
8451;BME280;4262;50.980;13.892;2023-03-19T09:43:23;50150.38;;;-142.97;22.15
8451;BME280;4262;50.980;13.892;2023-03-19T09:45:52;50158.16;;;-142.97;22.16
8451;BME280;4262;50.980;13.892;2023-03-19T09:48:28;50171.81;;;-142.97;21.92
8451;BME280;4262;50.980;13.892;2023-03-19T09:50:58;50160.13;;;-142.97;21.99
8451;BME280;4262;50.980;13.892;2023-03-19T09:53:32;50193.25;;;-142.97;21.94
8451;BME280;4262;50.980;13.892;2023-03-19T09:56:06;50173.75;;;-142.97;21.97
8451;BME280;4262;50.980;13.892;2023-03-19T09:58:35;50181.56;;;-142.97;22.47
8451;BME280;4262;50.980;13.892;2023-03-19T10:01:02;50164.03;;;-142.97;22.23
8451;BME280;4262;50.980;13.892;2023-03-19T10:03:41;50181.56;;;-142.97;22.39
8451;BME280;4262;50.980;13.892;2023-03-19T10:06:21;50146.47;;;-142.97;22.52
8451;BME280;4262;50.980;13.892;2023-03-19T10:09:12;50187.41;;;-142.97;22.69
8451;BME280;4262;50.980;13.892;2023-03-19T10:11:51;50187.41;;;-142.97;22.40
8451;BME280;4262;50.980;13.892;2023-03-19T10:17:31;50214.72;;;-142.97;22.42
8451;BME280;4262;50.980;13.892;2023-03-19T10:20:02;50177.66;;;-142.97;22.84
8451;BME280;4262;50.980;13.892;2023-03-19T10:22:35;50169.88;;;-142.97;22.72
8451;BME280;4262;50.980;13.892;2023-03-19T10:25:07;50175.72;;;-142.97;22.42
8451;BME280;4262;50.980;13.892;2023-03-19T10:27:37;50191.31;;;-142.97;22.07
8451;BME280;4262;50.980;13.892;2023-03-19T10:30:12;50191.31;;;-142.97;21.57
8451;BME280;4262;50.980;13.892;2023-03-19T10:32:43;50169.88;;;-142.97;22.56
8451;BME280;4262;50.980;13.892;2023-03-19T10:35:18;50222.50;;;-142.97;22.10
8451;BME280;4262;50.980;13.892;2023-03-19T10:37:47;50181.56;;;-142.97;22.12
8451;BME280;4262;50.980;13.892;2023-03-19T10:40:19;50154.28;;;-142.97;22.46
8451;BME280;4262;50.980;13.892;2023-03-19T10:43:01;50148.41;;;-142.97;22.06
8451;BME280;4262;50.980;13.892;2023-03-19T10:45:31;50160.13;;;-142.97;21.76
8451;BME280;4262;50.980;13.892;2023-03-19T10:48:00;50154.28;;;-142.97;21.63
8451;BME280;4262;50.980;13.892;2023-03-19T10:50:29;50164.03;;;-142.97;21.36
8451;BME280;4262;50.980;13.892;2023-03-19T10:53:04;50169.88;;;-142.97;21.63
8451;BME280;4262;50.980;13.892;2023-03-19T10:55:32;50162.06;;;-142.97;21.90
8451;BME280;4262;50.980;13.892;2023-03-19T10:58:04;50183.50;;;-142.97;21.87
8451;BME280;4262;50.980;13.892;2023-03-19T11:00:33;50191.31;;;-142.97;22.20
8451;BME280;4262;50.980;13.892;2023-03-19T11:03:01;50140.63;;;-142.97;21.44
8451;BME280;4262;50.980;13.892;2023-03-19T11:05:31;50197.16;;;-142.97;21.36
8451;BME280;4262;50.980;13.892;2023-03-19T11:08:00;50164.03;;;-142.97;21.19
8451;BME280;4262;50.980;13.892;2023-03-19T11:10:29;50197.16;;;-142.97;21.77
8451;BME280;4262;50.980;13.892;2023-03-19T11:12:59;50181.56;;;-142.97;22.27
8451;BME280;4262;50.980;13.892;2023-03-19T11:15:33;50204.97;;;-142.97;21.73
8451;BME280;4262;50.980;13.892;2023-03-19T11:18:05;50218.59;;;-142.97;22.05
8451;BME280;4262;50.980;13.892;2023-03-19T11:20:34;50208.84;;;-142.97;22.18
8451;BME280;4262;50.980;13.892;2023-03-19T11:23:06;50208.84;;;-142.97;21.63
8451;BME280;4262;50.980;13.892;2023-03-19T11:25:38;50191.31;;;-142.97;21.90
8451;BME280;4262;50.980;13.892;2023-03-19T11:28:07;50201.06;;;-142.97;22.02
8451;BME280;4262;50.980;13.892;2023-03-19T11:30:40;50191.31;;;-142.97;23.02
8451;BME280;4262;50.980;13.892;2023-03-19T11:33:24;50162.06;;;-142.97;21.80
8451;BME280;4262;50.980;13.892;2023-03-19T11:36:00;50175.72;;;-142.97;21.61
8451;BME280;4262;50.980;13.892;2023-03-19T11:38:36;50177.66;;;-142.97;21.91
8451;BME280;4262;50.980;13.892;2023-03-19T11:41:11;50171.81;;;-142.97;21.46
8451;BME280;4262;50.980;13.892;2023-03-19T11:43:46;50220.56;;;-142.97;21.90
8451;BME280;4262;50.980;13.892;2023-03-19T11:46:23;50177.66;;;-142.97;21.53
8451;BME280;4262;50.980;13.892;2023-03-19T11:49:13;50177.66;;;-142.97;21.49
8451;BME280;4262;50.980;13.892;2023-03-19T11:51:45;50204.97;;;-142.97;21.68
8451;BME280;4262;50.980;13.892;2023-03-19T11:54:21;50195.22;;;-142.97;21.61
8451;BME280;4262;50.980;13.892;2023-03-19T11:56:54;50224.47;;;-142.97;21.80
8451;BME280;4262;50.980;13.892;2023-03-19T11:59:40;50220.56;;;-142.97;22.16
8451;BME280;4262;50.980;13.892;2023-03-19T12:02:22;50216.66;;;-142.97;22.01
8451;BME280;4262;50.980;13.892;2023-03-19T12:05:02;50218.59;;;-142.97;22.13
8451;BME280;4262;50.980;13.892;2023-03-19T12:07:40;50193.25;;;-142.97;21.99
8451;BME280;4262;50.980;13.892;2023-03-19T12:10:25;50179.63;;;-142.97;21.64
8451;BME280;4262;50.980;13.892;2023-03-19T12:13:00;50179.63;;;-142.97;21.70
8451;BME280;4262;50.980;13.892;2023-03-19T12:15:35;50193.25;;;-142.97;21.95
8451;BME280;4262;50.980;13.892;2023-03-19T12:18:09;50187.41;;;-142.97;21.92
8451;BME280;4262;50.980;13.892;2023-03-19T12:20:50;50158.16;;;-142.97;22.40
8451;BME280;4262;50.980;13.892;2023-03-19T12:23:30;50126.97;;;-142.97;22.31
8451;BME280;4262;50.980;13.892;2023-03-19T12:26:02;50162.06;;;-142.97;21.73
8451;BME280;4262;50.980;13.892;2023-03-19T12:28:32;50125.03;;;-142.97;21.70
8451;BME280;4262;50.980;13.892;2023-03-19T12:31:25;50105.53;;;-142.97;21.37
8451;BME280;4262;50.980;13.892;2023-03-19T12:34:04;50066.53;;;-142.97;21.12
8451;BME280;4262;50.980;13.892;2023-03-19T12:36:38;50084.09;;;-142.97;20.74
8451;BME280;4262;50.980;13.892;2023-03-19T12:39:10;50099.69;;;-142.97;20.79
8451;BME280;4262;50.980;13.892;2023-03-19T12:41:41;50126.97;;;-142.97;20.91
8451;BME280;4262;50.980;13.892;2023-03-19T12:44:12;50066.53;;;-142.97;21.19
8451;BME280;4262;50.980;13.892;2023-03-19T12:46:47;50138.69;;;-142.97;21.00
8451;BME280;4262;50.980;13.892;2023-03-19T12:49:20;50165.97;;;-142.97;21.20
8451;BME280;4262;50.980;13.892;2023-03-19T12:51:54;50146.47;;;-142.97;21.84
8451;BME280;4262;50.980;13.892;2023-03-19T12:54:25;50103.59;;;-142.97;20.98
8451;BME280;4262;50.980;13.892;2023-03-19T12:56:56;50111.38;;;-142.97;20.78
8451;BME280;4262;50.980;13.892;2023-03-19T12:59:29;50093.84;;;-142.97;20.64
8451;BME280;4262;50.980;13.892;2023-03-19T13:02:03;50086.03;;;-142.97;20.27
8451;BME280;4262;50.980;13.892;2023-03-19T13:04:39;50078.25;;;-142.97;21.00
8451;BME280;4262;50.980;13.892;2023-03-19T13:07:16;50109.44;;;-142.97;20.82
8451;BME280;4262;50.980;13.892;2023-03-19T13:09:50;50167.91;;;-142.97;20.25
8451;BME280;4262;50.980;13.892;2023-03-19T13:12:21;50113.34;;;-142.97;21.03
8451;BME280;4262;50.980;13.892;2023-03-19T13:14:54;50103.59;;;-142.97;20.86
8451;BME280;4262;50.980;13.892;2023-03-19T13:17:27;50140.63;;;-142.97;21.04
8451;BME280;4262;50.980;13.892;2023-03-19T13:19:57;50212.75;;;-142.97;20.92
8451;BME280;4262;50.980;13.892;2023-03-19T13:22:31;50193.25;;;-142.97;20.83
8451;BME280;4262;50.980;13.892;2023-03-19T13:25:00;50185.47;;;-142.97;21.07
8451;BME280;4262;50.980;13.892;2023-03-19T13:27:31;50195.22;;;-142.97;20.88
8451;BME280;4262;50.980;13.892;2023-03-19T13:30:01;50232.25;;;-142.97;20.85
8451;BME280;4262;50.980;13.892;2023-03-19T13:32:35;50222.50;;;-142.97;21.07
8451;BME280;4262;50.980;13.892;2023-03-19T13:35:24;50238.09;;;-142.97;21.41
8451;BME280;4262;50.980;13.892;2023-03-19T13:37:57;50226.41;;;-142.97;21.20
8451;BME280;4262;50.980;13.892;2023-03-19T13:40:38;50228.34;;;-142.97;21.10
8451;BME280;4262;50.980;13.892;2023-03-19T13:46:37;50242.00;;;-142.97;21.39
8451;BME280;4262;50.980;13.892;2023-03-19T13:49:21;50206.91;;;-142.97;20.83
8451;BME280;4262;50.980;13.892;2023-03-19T13:51:50;50210.81;;;-142.97;21.32
8451;BME280;4262;50.980;13.892;2023-03-19T13:54:32;50230.31;;;-142.97;21.24
8451;BME280;4262;50.980;13.892;2023-03-19T13:57:18;50210.81;;;-142.97;21.20
8451;BME280;4262;50.980;13.892;2023-03-19T13:59:48;50226.41;;;-142.97;21.26
8451;BME280;4262;50.980;13.892;2023-03-19T14:02:45;50220.56;;;-142.97;21.18
8451;BME280;4262;50.980;13.892;2023-03-19T14:05:17;50243.94;;;-142.97;21.68
8451;BME280;4262;50.980;13.892;2023-03-19T14:07:50;50232.25;;;-142.97;21.67
8451;BME280;4262;50.980;13.892;2023-03-19T14:10:22;50263.44;;;-142.97;21.58
8451;BME280;4262;50.980;13.892;2023-03-19T14:12:51;50247.84;;;-142.97;21.32
8451;BME280;4262;50.980;13.892;2023-03-19T14:15:27;50210.81;;;-142.97;21.41
8451;BME280;4262;50.980;13.892;2023-03-19T14:17:58;50253.69;;;-142.97;21.45
8451;BME280;4262;50.980;13.892;2023-03-19T14:20:27;50240.06;;;-142.97;21.70
8451;BME280;4262;50.980;13.892;2023-03-19T14:23:10;50251.75;;;-142.97;21.44
8451;BME280;4262;50.980;13.892;2023-03-19T14:25:55;50234.19;;;-142.97;21.73
8451;BME280;4262;50.980;13.892;2023-03-19T14:28:30;50255.66;;;-142.97;21.58
8451;BME280;4262;50.980;13.892;2023-03-19T14:30:58;50296.59;;;-142.97;21.73
8451;BME280;4262;50.980;13.892;2023-03-19T14:33:31;50218.59;;;-142.97;21.87
8451;BME280;4262;50.980;13.892;2023-03-19T14:36:03;50234.19;;;-142.97;21.97
8451;BME280;4262;50.980;13.892;2023-03-19T14:38:34;50236.16;;;-142.97;21.92
8451;BME280;4262;50.980;13.892;2023-03-19T14:41:04;50234.19;;;-142.97;21.94
8451;BME280;4262;50.980;13.892;2023-03-19T14:43:51;50240.06;;;-142.97;21.61
8451;BME280;4262;50.980;13.892;2023-03-19T14:46:26;50232.25;;;-142.97;21.68
8451;BME280;4262;50.980;13.892;2023-03-19T14:49:32;50261.50;;;-142.97;21.70
8451;BME280;4262;50.980;13.892;2023-03-19T14:52:05;50253.69;;;-142.97;21.91
8451;BME280;4262;50.980;13.892;2023-03-19T14:54:37;50243.94;;;-142.97;21.97
8451;BME280;4262;50.980;13.892;2023-03-19T14:57:15;50242.00;;;-142.97;22.11
8451;BME280;4262;50.980;13.892;2023-03-19T14:59:42;50240.06;;;-142.97;21.94
8451;BME280;4262;50.980;13.892;2023-03-19T15:02:19;50232.25;;;-142.97;22.00
8451;BME280;4262;50.980;13.892;2023-03-19T15:04:47;50232.25;;;-142.97;22.06
8451;BME280;4262;50.980;13.892;2023-03-19T15:07:18;50230.31;;;-142.97;21.99
8451;BME280;4262;50.980;13.892;2023-03-19T15:09:48;50226.41;;;-142.97;22.11
8451;BME280;4262;50.980;13.892;2023-03-19T15:15:38;50253.69;;;-142.97;22.07
8451;BME280;4262;50.980;13.892;2023-03-19T15:18:10;50232.25;;;-142.97;22.26
8451;BME280;4262;50.980;13.892;2023-03-19T15:20:38;50253.69;;;-142.97;22.26
8451;BME280;4262;50.980;13.892;2023-03-19T15:23:09;50255.66;;;-142.97;22.22
8451;BME280;4262;50.980;13.892;2023-03-19T15:25:43;50249.81;;;-142.97;22.21
8451;BME280;4262;50.980;13.892;2023-03-19T15:28:12;50261.50;;;-142.97;22.18
8451;BME280;4262;50.980;13.892;2023-03-19T15:30:41;50259.56;;;-142.97;22.23
8451;BME280;4262;50.980;13.892;2023-03-19T15:33:18;50240.06;;;-142.97;22.40
8451;BME280;4262;50.980;13.892;2023-03-19T15:35:48;50253.69;;;-142.97;22.37
8451;BME280;4262;50.980;13.892;2023-03-19T15:38:17;50226.41;;;-142.97;22.84
8451;BME280;4262;50.980;13.892;2023-03-19T15:40:44;50232.25;;;-142.97;22.88
8451;BME280;4262;50.980;13.892;2023-03-19T15:43:12;50279.03;;;-142.97;22.62
8451;BME280;4262;50.980;13.892;2023-03-19T15:45:44;50255.66;;;-142.97;22.69
8451;BME280;4262;50.980;13.892;2023-03-19T15:48:16;50245.91;;;-142.97;22.58
8451;BME280;4262;50.980;13.892;2023-03-19T15:50:47;50240.06;;;-142.97;22.48
8451;BME280;4262;50.980;13.892;2023-03-19T15:53:18;50232.25;;;-142.97;22.72
8451;BME280;4262;50.980;13.892;2023-03-19T15:55:48;50245.91;;;-142.97;22.72
8451;BME280;4262;50.980;13.892;2023-03-19T15:58:19;50294.63;;;-142.97;22.62
8451;BME280;4262;50.980;13.892;2023-03-19T16:00:50;50249.81;;;-142.97;22.55
8451;BME280;4262;50.980;13.892;2023-03-19T16:03:19;50257.59;;;-142.97;22.35
8451;BME280;4262;50.980;13.892;2023-03-19T16:05:50;50265.41;;;-142.97;22.43
8451;BME280;4262;50.980;13.892;2023-03-19T16:08:20;50275.16;;;-142.97;22.25
8451;BME280;4262;50.980;13.892;2023-03-19T16:10:47;50249.81;;;-142.97;22.11
8451;BME280;4262;50.980;13.892;2023-03-19T16:13:28;50224.47;;;-142.97;22.26
8451;BME280;4262;50.980;13.892;2023-03-19T16:16:04;50271.25;;;-142.97;22.15
8451;BME280;4262;50.980;13.892;2023-03-19T16:18:41;50257.59;;;-142.97;21.99
8451;BME280;4262;50.980;13.892;2023-03-19T16:21:13;50257.59;;;-142.97;23.10
8451;BME280;4262;50.980;13.892;2023-03-19T16:23:42;50240.06;;;-142.97;22.63
8451;BME280;4262;50.980;13.892;2023-03-19T16:26:17;50259.56;;;-142.97;22.22
8451;BME280;4262;50.980;13.892;2023-03-19T16:28:47;50261.50;;;-142.97;22.31
8451;BME280;4262;50.980;13.892;2023-03-19T16:31:23;50261.50;;;-142.97;22.72
8451;BME280;4262;50.980;13.892;2023-03-19T16:33:53;50255.66;;;-142.97;22.26
8451;BME280;4262;50.980;13.892;2023-03-19T16:36:22;50257.59;;;-142.97;22.49
8451;BME280;4262;50.980;13.892;2023-03-19T16:38:55;50247.84;;;-142.97;22.58
8451;BME280;4262;50.980;13.892;2023-03-19T16:41:33;50265.41;;;-142.97;22.36
8451;BME280;4262;50.980;13.892;2023-03-19T16:44:11;50271.25;;;-142.97;22.26
8451;BME280;4262;50.980;13.892;2023-03-19T16:46:39;50265.41;;;-142.97;22.97
8451;BME280;4262;50.980;13.892;2023-03-19T16:49:06;50263.44;;;-142.97;25.35
8451;BME280;4262;50.980;13.892;2023-03-19T16:51:33;50263.44;;;-142.97;26.53
8451;BME280;4262;50.980;13.892;2023-03-19T16:54:01;50273.19;;;-142.97;26.93
8451;BME280;4262;50.980;13.892;2023-03-19T16:56:28;50263.44;;;-142.97;26.66
8451;BME280;4262;50.980;13.892;2023-03-19T16:58:55;50273.19;;;-142.97;26.74
8451;BME280;4262;50.980;13.892;2023-03-19T17:01:23;50273.19;;;-142.97;27.16
8451;BME280;4262;50.980;13.892;2023-03-19T17:03:52;50261.50;;;-142.97;27.76
8451;BME280;4262;50.980;13.892;2023-03-19T17:06:20;50279.03;;;-142.97;27.79
8451;BME280;4262;50.980;13.892;2023-03-19T17:08:47;50261.50;;;-142.97;27.93
8451;BME280;4262;50.980;13.892;2023-03-19T17:11:17;50271.25;;;-142.97;27.55
8451;BME280;4262;50.980;13.892;2023-03-19T17:13:47;50290.75;;;-142.97;27.93
8451;BME280;4262;50.980;13.892;2023-03-19T17:16:15;50273.19;;;-142.97;27.79
8451;BME280;4262;50.980;13.892;2023-03-19T17:18:42;50275.16;;;-142.97;27.66
8451;BME280;4262;50.980;13.892;2023-03-19T17:21:13;50271.25;;;-142.97;27.74
8451;BME280;4262;50.980;13.892;2023-03-19T17:23:41;50265.41;;;-142.97;27.31
8451;BME280;4262;50.980;13.892;2023-03-19T17:26:14;50265.41;;;-142.97;27.50
8451;BME280;4262;50.980;13.892;2023-03-19T17:28:42;50253.69;;;-142.97;27.06
8451;BME280;4262;50.980;13.892;2023-03-19T17:31:19;50273.19;;;-142.97;26.87
8451;BME280;4262;50.980;13.892;2023-03-19T17:33:50;50282.94;;;-142.97;27.15
8451;BME280;4262;50.980;13.892;2023-03-19T17:36:19;50288.78;;;-142.97;26.77
8451;BME280;4262;50.980;13.892;2023-03-19T17:38:46;50267.34;;;-142.97;26.63
8451;BME280;4262;50.980;13.892;2023-03-19T17:41:14;50259.56;;;-142.97;26.30
8451;BME280;4262;50.980;13.892;2023-03-19T17:43:42;50259.56;;;-142.97;26.85
8451;BME280;4262;50.980;13.892;2023-03-19T17:46:11;50279.03;;;-142.97;26.73
8451;BME280;4262;50.980;13.892;2023-03-19T17:48:40;50273.19;;;-142.97;26.29
8451;BME280;4262;50.980;13.892;2023-03-19T17:51:08;50249.81;;;-142.97;26.40
8451;BME280;4262;50.980;13.892;2023-03-19T17:53:37;50243.94;;;-142.97;26.34
8451;BME280;4262;50.980;13.892;2023-03-19T17:56:05;50277.09;;;-142.97;26.32
8451;BME280;4262;50.980;13.892;2023-03-19T17:58:32;50265.41;;;-142.97;26.49
8451;BME280;4262;50.980;13.892;2023-03-19T18:00:59;50284.91;;;-142.97;26.68
8451;BME280;4262;50.980;13.892;2023-03-19T18:03:27;50294.63;;;-142.97;26.65
8451;BME280;4262;50.980;13.892;2023-03-19T18:06:02;50275.16;;;-142.97;26.58
8451;BME280;4262;50.980;13.892;2023-03-19T18:08:31;50253.69;;;-142.97;26.73
8451;BME280;4262;50.980;13.892;2023-03-19T18:10:59;50284.91;;;-142.97;26.73
8451;BME280;4262;50.980;13.892;2023-03-19T18:13:26;50277.09;;;-142.97;27.19
8451;BME280;4262;50.980;13.892;2023-03-19T18:15:53;50261.50;;;-142.97;27.55
8451;BME280;4262;50.980;13.892;2023-03-19T18:18:23;50263.44;;;-142.97;27.88
8451;BME280;4262;50.980;13.892;2023-03-19T18:20:50;50288.78;;;-142.97;27.70
8451;BME280;4262;50.980;13.892;2023-03-19T18:23:17;50286.84;;;-142.97;27.08
8451;BME280;4262;50.980;13.892;2023-03-19T18:25:45;50259.56;;;-142.97;27.46
8451;BME280;4262;50.980;13.892;2023-03-19T18:28:13;50253.69;;;-142.97;26.89
8451;BME280;4262;50.980;13.892;2023-03-19T18:30:40;50275.16;;;-142.97;26.78
8451;BME280;4262;50.980;13.892;2023-03-19T18:33:12;50259.56;;;-142.97;26.69
8451;BME280;4262;50.980;13.892;2023-03-19T18:35:43;50261.50;;;-142.97;26.49
8451;BME280;4262;50.980;13.892;2023-03-19T18:38:15;50288.78;;;-142.97;26.67
8451;BME280;4262;50.980;13.892;2023-03-19T18:40:43;50247.84;;;-142.97;26.99
8451;BME280;4262;50.980;13.892;2023-03-19T18:43:10;50275.16;;;-142.97;26.97
8451;BME280;4262;50.980;13.892;2023-03-19T18:45:40;50245.91;;;-142.97;26.42
8451;BME280;4262;50.980;13.892;2023-03-19T18:48:20;50290.75;;;-142.97;26.67
8451;BME280;4262;50.980;13.892;2023-03-19T18:50:47;50275.16;;;-142.97;26.37
8451;BME280;4262;50.980;13.892;2023-03-19T18:53:15;50249.81;;;-142.97;26.45
8451;BME280;4262;50.980;13.892;2023-03-19T18:55:43;50255.66;;;-142.97;26.54
8451;BME280;4262;50.980;13.892;2023-03-19T18:58:15;50263.44;;;-142.97;26.51
8451;BME280;4262;50.980;13.892;2023-03-19T19:00:45;50275.16;;;-142.97;26.58
8451;BME280;4262;50.980;13.892;2023-03-19T19:03:14;50261.50;;;-142.97;26.55
8451;BME280;4262;50.980;13.892;2023-03-19T19:05:43;50288.78;;;-142.97;26.55
8451;BME280;4262;50.980;13.892;2023-03-19T19:08:13;50281.00;;;-142.97;26.70
8451;BME280;4262;50.980;13.892;2023-03-19T19:10:43;50279.03;;;-142.97;26.85
8451;BME280;4262;50.980;13.892;2023-03-19T19:13:17;50288.78;;;-142.97;26.53
8451;BME280;4262;50.980;13.892;2023-03-19T19:15:46;50279.03;;;-142.97;26.65
8451;BME280;4262;50.980;13.892;2023-03-19T19:18:16;50245.91;;;-142.97;26.77
8451;BME280;4262;50.980;13.892;2023-03-19T19:20:44;50271.25;;;-142.97;26.79
8451;BME280;4262;50.980;13.892;2023-03-19T19:23:13;50279.03;;;-142.97;27.02